sensor_id;sensor_type;location;lat;lon;timestamp;pressure;altitude;pressure_sealevel;temperature;humidity
31403;BME280;18039;52.188;21.024;2023-06-24T00:00:37;75384.97;;;-141.45;70.17
31403;BME280;18039;52.188;21.024;2023-06-24T00:03:25;75380.91;;;-141.45;70.53
31403;BME280;18039;52.188;21.024;2023-06-24T00:05:53;75372.78;;;-141.45;70.51
31403;BME280;18039;52.188;21.024;2023-06-24T00:08:20;75378.88;;;-141.45;70.80
31403;BME280;18039;52.188;21.024;2023-06-24T00:10:51;75376.84;;;-141.45;70.91
31403;BME280;18039;52.188;21.024;2023-06-24T00:13:18;75380.91;;;-141.45;70.78
31403;BME280;18039;52.188;21.024;2023-06-24T00:15:45;75380.91;;;-141.45;70.64
31403;BME280;18039;52.188;21.024;2023-06-24T00:18:12;75380.91;;;-141.45;70.98
31403;BME280;18039;52.188;21.024;2023-06-24T00:20:40;75384.97;;;-141.45;71.61
31403;BME280;18039;52.188;21.024;2023-06-24T00:23:12;75391.03;;;-141.45;72.68
31403;BME280;18039;52.188;21.024;2023-06-24T00:25:43;75393.06;;;-141.45;71.98
31403;BME280;18039;52.188;21.024;2023-06-24T00:28:09;75393.06;;;-141.45;71.41
31403;BME280;18039;52.188;21.024;2023-06-24T00:30:37;75393.06;;;-141.45;71.54
31403;BME280;18039;52.188;21.024;2023-06-24T00:33:04;75389.00;;;-141.45;71.65
31403;BME280;18039;52.188;21.024;2023-06-24T00:35:33;75389.00;;;-141.45;71.73
31403;BME280;18039;52.188;21.024;2023-06-24T00:38:00;75391.03;;;-141.45;71.44
31403;BME280;18039;52.188;21.024;2023-06-24T00:40:27;75393.06;;;-141.45;71.52
31403;BME280;18039;52.188;21.024;2023-06-24T00:42:56;75393.06;;;-141.45;71.20
31403;BME280;18039;52.188;21.024;2023-06-24T00:45:24;75393.06;;;-141.45;71.54
31403;BME280;18039;52.188;21.024;2023-06-24T00:47:51;75403.19;;;-141.45;71.74
31403;BME280;18039;52.188;21.024;2023-06-24T00:50:23;75405.22;;;-141.45;71.88
31403;BME280;18039;52.188;21.024;2023-06-24T00:52:53;75401.16;;;-141.45;71.92
31403;BME280;18039;52.188;21.024;2023-06-24T00:55:20;75397.13;;;-141.45;71.82
31403;BME280;18039;52.188;21.024;2023-06-24T00:57:51;75407.25;;;-141.45;71.49
31403;BME280;18039;52.188;21.024;2023-06-24T01:00:21;75413.31;;;-141.45;71.84
31403;BME280;18039;52.188;21.024;2023-06-24T01:02:50;75417.38;;;-141.45;71.99
31403;BME280;18039;52.188;21.024;2023-06-24T01:05:18;75421.44;;;-141.45;72.29
31403;BME280;18039;52.188;21.024;2023-06-24T01:07:51;75425.47;;;-141.45;72.07
31403;BME280;18039;52.188;21.024;2023-06-24T01:10:23;75421.44;;;-141.45;71.93
31403;BME280;18039;52.188;21.024;2023-06-24T01:12:51;75425.47;;;-141.45;72.02
31403;BME280;18039;52.188;21.024;2023-06-24T01:15:19;75433.59;;;-141.45;72.45
31403;BME280;18039;52.188;21.024;2023-06-24T01:18:08;75431.56;;;-141.45;72.21
31403;BME280;18039;52.188;21.024;2023-06-24T01:33:46;75433.59;;;-141.45;70.76
31403;BME280;18039;52.188;21.024;2023-06-24T01:36:20;75437.63;;;-141.45;70.68
31403;BME280;18039;52.188;21.024;2023-06-24T01:38:55;75437.63;;;-141.45;70.52
31403;BME280;18039;52.188;21.024;2023-06-24T01:41:26;75431.56;;;-141.45;70.51
31403;BME280;18039;52.188;21.024;2023-06-24T01:43:57;75429.53;;;-141.45;70.02
31403;BME280;18039;52.188;21.024;2023-06-24T01:46:28;75433.59;;;-141.45;70.03
31403;BME280;18039;52.188;21.024;2023-06-24T01:48:59;75429.53;;;-141.45;69.85
31403;BME280;18039;52.188;21.024;2023-06-24T01:51:31;75429.53;;;-141.45;70.04
31403;BME280;18039;52.188;21.024;2023-06-24T01:54:06;75433.59;;;-141.45;69.78
31403;BME280;18039;52.188;21.024;2023-06-24T01:56:36;75437.63;;;-141.45;69.62
31403;BME280;18039;52.188;21.024;2023-06-24T01:59:05;75441.69;;;-141.45;69.95
31403;BME280;18039;52.188;21.024;2023-06-24T02:01:35;75457.91;;;-141.45;70.34
31403;BME280;18039;52.188;21.024;2023-06-24T02:04:08;75461.97;;;-141.45;70.57
31403;BME280;18039;52.188;21.024;2023-06-24T02:06:36;75461.97;;;-141.45;70.84
31403;BME280;18039;52.188;21.024;2023-06-24T02:09:06;75474.13;;;-141.45;70.79
31403;BME280;18039;52.188;21.024;2023-06-24T02:11:34;75486.28;;;-141.45;71.11
31403;BME280;18039;52.188;21.024;2023-06-24T02:14:04;75502.50;;;-141.45;71.63
31403;BME280;18039;52.188;21.024;2023-06-24T02:16:33;75502.50;;;-141.45;71.25
31403;BME280;18039;52.188;21.024;2023-06-24T02:19:02;75508.56;;;-141.45;71.91
31403;BME280;18039;52.188;21.024;2023-06-24T02:21:32;75516.66;;;-141.45;72.56
31403;BME280;18039;52.188;21.024;2023-06-24T02:24:02;75514.66;;;-141.45;72.74
31403;BME280;18039;52.188;21.024;2023-06-24T02:26:32;75526.81;;;-141.45;72.83
31403;BME280;18039;52.188;21.024;2023-06-24T02:28:59;75526.81;;;-141.45;73.19
31403;BME280;18039;52.188;21.024;2023-06-24T02:31:29;75526.81;;;-141.45;73.48
31403;BME280;18039;52.188;21.024;2023-06-24T02:33:57;75520.72;;;-141.45;73.52
31403;BME280;18039;52.188;21.024;2023-06-24T02:36:24;75520.72;;;-141.45;72.60
31403;BME280;18039;52.188;21.024;2023-06-24T02:38:52;75526.81;;;-141.45;72.83
31403;BME280;18039;52.188;21.024;2023-06-24T02:41:20;75522.75;;;-141.45;72.80
31403;BME280;18039;52.188;21.024;2023-06-24T02:43:48;75522.75;;;-141.45;73.44
31403;BME280;18039;52.188;21.024;2023-06-24T02:46:16;75520.72;;;-141.45;73.66
31403;BME280;18039;52.188;21.024;2023-06-24T02:48:45;75514.66;;;-141.45;73.33
31403;BME280;18039;52.188;21.024;2023-06-24T02:51:13;75510.59;;;-141.45;72.97
31403;BME280;18039;52.188;21.024;2023-06-24T02:53:41;75518.69;;;-141.45;73.08
31403;BME280;18039;52.188;21.024;2023-06-24T02:56:12;75522.75;;;-141.45;73.08
31403;BME280;18039;52.188;21.024;2023-06-24T02:58:44;75518.69;;;-141.45;73.38
31403;BME280;18039;52.188;21.024;2023-06-24T03:01:22;75522.75;;;-141.45;73.77
31403;BME280;18039;52.188;21.024;2023-06-24T03:03:54;75522.75;;;-141.45;74.39
31403;BME280;18039;52.188;21.024;2023-06-24T03:06:22;75526.81;;;-141.45;74.63
31403;BME280;18039;52.188;21.024;2023-06-24T03:08:55;75526.81;;;-141.45;74.65
31403;BME280;18039;52.188;21.024;2023-06-24T03:11:24;75524.78;;;-141.45;75.15
31403;BME280;18039;52.188;21.024;2023-06-24T03:13:52;75518.69;;;-141.45;75.10
31403;BME280;18039;52.188;21.024;2023-06-24T03:16:22;75522.75;;;-141.45;75.57
31403;BME280;18039;52.188;21.024;2023-06-24T03:19:09;75522.75;;;-141.45;75.75
31403;BME280;18039;52.188;21.024;2023-06-24T03:21:37;75518.69;;;-141.45;76.27
31403;BME280;18039;52.188;21.024;2023-06-24T03:24:08;75522.75;;;-141.45;76.38
31403;BME280;18039;52.188;21.024;2023-06-24T03:26:38;75522.75;;;-141.45;76.63
31403;BME280;18039;52.188;21.024;2023-06-24T03:29:09;75524.78;;;-141.45;76.72
31403;BME280;18039;52.188;21.024;2023-06-24T03:31:43;75518.69;;;-141.45;76.79
31403;BME280;18039;52.188;21.024;2023-06-24T03:34:17;75510.59;;;-141.45;76.81
31403;BME280;18039;52.188;21.024;2023-06-24T03:36:45;75514.66;;;-141.45;77.18
31403;BME280;18039;52.188;21.024;2023-06-24T03:39:15;75514.66;;;-141.45;77.59
31403;BME280;18039;52.188;21.024;2023-06-24T03:41:42;75514.66;;;-141.45;77.30
31403;BME280;18039;52.188;21.024;2023-06-24T03:44:12;75510.59;;;-141.45;77.56
31403;BME280;18039;52.188;21.024;2023-06-24T03:46:39;75510.59;;;-141.45;77.31
31403;BME280;18039;52.188;21.024;2023-06-24T03:49:09;75514.66;;;-141.45;77.93
31403;BME280;18039;52.188;21.024;2023-06-24T03:51:37;75510.59;;;-141.45;77.76
31403;BME280;18039;52.188;21.024;2023-06-24T03:54:04;75506.53;;;-141.45;77.75
31403;BME280;18039;52.188;21.024;2023-06-24T03:56:32;75502.50;;;-141.45;77.52
31403;BME280;18039;52.188;21.024;2023-06-24T03:58:59;75490.31;;;-141.45;77.22
31403;BME280;18039;52.188;21.024;2023-06-24T04:01:26;75474.13;;;-141.45;77.07
31403;BME280;18039;52.188;21.024;2023-06-24T04:03:58;75453.84;;;-141.45;76.63
31403;BME280;18039;52.188;21.024;2023-06-24T04:06:26;75429.53;;;-141.45;75.62
31403;BME280;18039;52.188;21.024;2023-06-24T04:08:53;75413.31;;;-141.45;74.72
31403;BME280;18039;52.188;21.024;2023-06-24T04:11:22;75393.06;;;-141.45;73.13
31403;BME280;18039;52.188;21.024;2023-06-24T04:13:49;75389.00;;;-141.45;73.46
31403;BME280;18039;52.188;21.024;2023-06-24T04:16:17;75384.97;;;-141.45;72.57
31403;BME280;18039;52.188;21.024;2023-06-24T04:18:44;75378.88;;;-141.45;71.55
31403;BME280;18039;52.188;21.024;2023-06-24T04:21:11;75386.97;;;-141.45;72.29
31403;BME280;18039;52.188;21.024;2023-06-24T04:23:39;75386.97;;;-141.45;72.75
31403;BME280;18039;52.188;21.024;2023-06-24T04:26:07;75389.00;;;-141.45;72.80
31403;BME280;18039;52.188;21.024;2023-06-24T04:28:34;75397.13;;;-141.45;72.90
31403;BME280;18039;52.188;21.024;2023-06-24T04:31:03;75405.22;;;-141.45;73.00
31403;BME280;18039;52.188;21.024;2023-06-24T04:33:31;75431.56;;;-141.45;73.47
31403;BME280;18039;52.188;21.024;2023-06-24T04:35:58;75439.66;;;-141.45;73.67
31403;BME280;18039;52.188;21.024;2023-06-24T04:38:27;75445.75;;;-141.45;73.78
31403;BME280;18039;52.188;21.024;2023-06-24T04:40:55;75457.91;;;-141.45;74.09
31403;BME280;18039;52.188;21.024;2023-06-24T04:43:22;75466.00;;;-141.45;74.44
31403;BME280;18039;52.188;21.024;2023-06-24T04:45:49;75466.00;;;-141.45;74.20
31403;BME280;18039;52.188;21.024;2023-06-24T04:48:17;75468.03;;;-141.45;74.67
31403;BME280;18039;52.188;21.024;2023-06-24T04:50:44;75466.00;;;-141.45;74.84
31403;BME280;18039;52.188;21.024;2023-06-24T04:53:11;75457.91;;;-141.45;74.27
31403;BME280;18039;52.188;21.024;2023-06-24T04:55:38;75453.84;;;-141.45;74.65
31403;BME280;18039;52.188;21.024;2023-06-24T04:58:05;75437.63;;;-141.45;73.59
31403;BME280;18039;52.188;21.024;2023-06-24T05:00:34;75437.63;;;-141.45;73.75
31403;BME280;18039;52.188;21.024;2023-06-24T05:03:01;75441.69;;;-141.45;73.15
31403;BME280;18039;52.188;21.024;2023-06-24T05:05:29;75437.63;;;-141.45;72.88
31403;BME280;18039;52.188;21.024;2023-06-24T05:08:00;75433.59;;;-141.45;71.81
31403;BME280;18039;52.188;21.024;2023-06-24T05:10:27;75441.69;;;-141.45;72.26
31403;BME280;18039;52.188;21.024;2023-06-24T05:12:55;75449.81;;;-141.45;72.49
31403;BME280;18039;52.188;21.024;2023-06-24T05:15:22;75449.81;;;-141.45;72.88
31403;BME280;18039;52.188;21.024;2023-06-24T05:17:49;75445.75;;;-141.45;73.02
31403;BME280;18039;52.188;21.024;2023-06-24T05:20:19;75435.63;;;-141.45;72.00
31403;BME280;18039;52.188;21.024;2023-06-24T05:22:47;75427.50;;;-141.45;71.88
31403;BME280;18039;52.188;21.024;2023-06-24T05:25:14;75421.44;;;-141.45;71.46
31403;BME280;18039;52.188;21.024;2023-06-24T05:27:41;75411.28;;;-141.45;71.55
31403;BME280;18039;52.188;21.024;2023-06-24T05:30:09;75413.31;;;-141.45;71.34
31403;BME280;18039;52.188;21.024;2023-06-24T05:32:36;75405.22;;;-141.45;71.20
31403;BME280;18039;52.188;21.024;2023-06-24T05:35:04;75403.19;;;-141.45;70.62
31403;BME280;18039;52.188;21.024;2023-06-24T05:37:31;75405.22;;;-141.45;70.28
31403;BME280;18039;52.188;21.024;2023-06-24T05:39:59;75397.13;;;-141.45;70.11
31403;BME280;18039;52.188;21.024;2023-06-24T05:42:28;75397.13;;;-141.45;69.55
31403;BME280;18039;52.188;21.024;2023-06-24T05:44:55;75384.97;;;-141.45;68.99
31403;BME280;18039;52.188;21.024;2023-06-24T05:47:23;75389.00;;;-141.45;69.25
31403;BME280;18039;52.188;21.024;2023-06-24T05:49:50;75380.91;;;-141.45;69.19
31403;BME280;18039;52.188;21.024;2023-06-24T05:52:17;75372.78;;;-141.45;69.12
31403;BME280;18039;52.188;21.024;2023-06-24T05:54:44;75356.59;;;-141.45;68.94
31403;BME280;18039;52.188;21.024;2023-06-24T05:57:12;75344.44;;;-141.45;68.93
31403;BME280;18039;52.188;21.024;2023-06-24T05:59:39;75334.28;;;-141.45;67.75
31403;BME280;18039;52.188;21.024;2023-06-24T06:02:07;75328.22;;;-141.45;66.71
31403;BME280;18039;52.188;21.024;2023-06-24T06:04:34;75328.22;;;-141.45;67.08
31403;BME280;18039;52.188;21.024;2023-06-24T06:07:02;75320.13;;;-141.45;66.93
31403;BME280;18039;52.188;21.024;2023-06-24T06:09:29;75328.22;;;-141.45;66.24
31403;BME280;18039;52.188;21.024;2023-06-24T06:11:57;75328.22;;;-141.45;66.71
31403;BME280;18039;52.188;21.024;2023-06-24T06:14:24;75336.31;;;-141.45;67.17
31403;BME280;18039;52.188;21.024;2023-06-24T06:16:51;75340.38;;;-141.45;67.82
31403;BME280;18039;52.188;21.024;2023-06-24T06:19:19;75342.41;;;-141.45;68.04
31403;BME280;18039;52.188;21.024;2023-06-24T06:21:47;75328.22;;;-141.45;67.81
31403;BME280;18039;52.188;21.024;2023-06-24T06:24:15;75320.13;;;-141.45;67.92
31403;BME280;18039;52.188;21.024;2023-06-24T06:26:43;75299.84;;;-141.45;67.33
31403;BME280;18039;52.188;21.024;2023-06-24T06:29:11;75293.78;;;-141.45;67.62
31403;BME280;18039;52.188;21.024;2023-06-24T06:31:39;75279.59;;;-141.45;66.80
31403;BME280;18039;52.188;21.024;2023-06-24T06:34:06;75279.59;;;-141.45;66.76
31403;BME280;18039;52.188;21.024;2023-06-24T06:36:34;75275.53;;;-141.45;66.66
31403;BME280;18039;52.188;21.024;2023-06-24T06:39:01;75263.38;;;-141.45;67.36
31403;BME280;18039;52.188;21.024;2023-06-24T06:41:29;75255.25;;;-141.45;67.18
31403;BME280;18039;52.188;21.024;2023-06-24T06:43:56;75239.06;;;-141.45;66.07
31403;BME280;18039;52.188;21.024;2023-06-24T06:46:24;75220.81;;;-141.45;66.01
31403;BME280;18039;52.188;21.024;2023-06-24T06:48:52;75206.63;;;-141.45;66.15
31403;BME280;18039;52.188;21.024;2023-06-24T06:51:20;75190.44;;;-141.45;65.48
31403;BME280;18039;52.188;21.024;2023-06-24T06:53:47;75186.38;;;-141.45;64.31
31403;BME280;18039;52.188;21.024;2023-06-24T06:56:21;75178.28;;;-141.45;64.64
31403;BME280;18039;52.188;21.024;2023-06-24T06:58:50;75170.16;;;-141.45;63.59
31403;BME280;18039;52.188;21.024;2023-06-24T07:01:18;75172.19;;;-141.45;64.43
31403;BME280;18039;52.188;21.024;2023-06-24T07:03:46;75182.31;;;-141.45;64.62
31403;BME280;18039;52.188;21.024;2023-06-24T07:06:13;75190.44;;;-141.45;64.29
31403;BME280;18039;52.188;21.024;2023-06-24T07:08:41;75188.41;;;-141.45;64.98
31403;BME280;18039;52.188;21.024;2023-06-24T07:11:07;75186.38;;;-141.45;65.08
31403;BME280;18039;52.188;21.024;2023-06-24T07:13:35;75174.22;;;-141.45;65.14
31403;BME280;18039;52.188;21.024;2023-06-24T07:16:02;75172.19;;;-141.45;64.55
31403;BME280;18039;52.188;21.024;2023-06-24T07:18:29;75182.31;;;-141.45;64.63
31403;BME280;18039;52.188;21.024;2023-06-24T07:21:00;75168.13;;;-141.45;64.74
31403;BME280;18039;52.188;21.024;2023-06-24T07:23:27;75162.06;;;-141.45;63.67
31403;BME280;18039;52.188;21.024;2023-06-24T07:25:55;75135.72;;;-141.45;61.98
31403;BME280;18039;52.188;21.024;2023-06-24T07:28:22;75137.75;;;-141.45;61.69
31403;BME280;18039;52.188;21.024;2023-06-24T07:30:49;75135.72;;;-141.45;61.63
31403;BME280;18039;52.188;21.024;2023-06-24T07:33:17;75133.69;;;-141.45;62.32
31403;BME280;18039;52.188;21.024;2023-06-24T07:35:44;75133.69;;;-141.45;63.32
31403;BME280;18039;52.188;21.024;2023-06-24T07:38:12;75125.59;;;-141.45;62.79
31403;BME280;18039;52.188;21.024;2023-06-24T07:40:39;75121.53;;;-141.45;59.87
31403;BME280;18039;52.188;21.024;2023-06-24T07:43:06;75121.53;;;-141.45;59.62
31403;BME280;18039;52.188;21.024;2023-06-24T07:45:33;75125.59;;;-141.45;60.15
31403;BME280;18039;52.188;21.024;2023-06-24T07:48:01;75121.53;;;-141.45;60.61
31403;BME280;18039;52.188;21.024;2023-06-24T07:50:28;75121.53;;;-141.45;61.24
31403;BME280;18039;52.188;21.024;2023-06-24T07:52:56;75109.38;;;-141.45;60.99
31403;BME280;18039;52.188;21.024;2023-06-24T07:55:23;75109.38;;;-141.45;61.53
31403;BME280;18039;52.188;21.024;2023-06-24T07:57:51;75117.47;;;-141.45;61.07
31403;BME280;18039;52.188;21.024;2023-06-24T08:00:18;75125.59;;;-141.45;60.37
31403;BME280;18039;52.188;21.024;2023-06-24T08:02:46;75125.59;;;-141.45;60.74
31403;BME280;18039;52.188;21.024;2023-06-24T08:05:13;75109.38;;;-141.45;61.63
31403;BME280;18039;52.188;21.024;2023-06-24T08:07:40;75109.38;;;-141.45;61.95
31403;BME280;18039;52.188;21.024;2023-06-24T08:10:08;75101.28;;;-141.45;60.65
31403;BME280;18039;52.188;21.024;2023-06-24T08:12:35;75109.38;;;-141.45;60.28
31403;BME280;18039;52.188;21.024;2023-06-24T08:15:03;75105.31;;;-141.45;59.30
31403;BME280;18039;52.188;21.024;2023-06-24T08:17:31;75093.16;;;-141.45;58.41
31403;BME280;18039;52.188;21.024;2023-06-24T08:19:58;75097.22;;;-141.45;58.94
31403;BME280;18039;52.188;21.024;2023-06-24T08:22:25;75085.06;;;-141.45;58.12
31403;BME280;18039;52.188;21.024;2023-06-24T08:24:52;75091.13;;;-141.45;54.51
31403;BME280;18039;52.188;21.024;2023-06-24T08:27:20;75109.38;;;-141.45;55.43
31403;BME280;18039;52.188;21.024;2023-06-24T08:29:47;75113.44;;;-141.45;55.52
31403;BME280;18039;52.188;21.024;2023-06-24T08:32:14;75101.28;;;-141.45;55.48
31403;BME280;18039;52.188;21.024;2023-06-24T08:34:41;75095.19;;;-141.45;54.96
31403;BME280;18039;52.188;21.024;2023-06-24T08:37:09;75085.06;;;-141.45;54.82
31403;BME280;18039;52.188;21.024;2023-06-24T08:39:36;75076.97;;;-141.45;53.57
31403;BME280;18039;52.188;21.024;2023-06-24T08:42:06;75060.75;;;-141.45;53.60
31403;BME280;18039;52.188;21.024;2023-06-24T08:44:33;75048.59;;;-141.45;51.91
31403;BME280;18039;52.188;21.024;2023-06-24T08:47:00;75048.59;;;-141.45;50.14
31403;BME280;18039;52.188;21.024;2023-06-24T08:49:29;75050.63;;;-141.45;51.02
31403;BME280;18039;52.188;21.024;2023-06-24T08:52:06;75056.69;;;-141.45;49.64
31403;BME280;18039;52.188;21.024;2023-06-24T08:54:36;75044.53;;;-141.45;49.75
31403;BME280;18039;52.188;21.024;2023-06-24T08:57:03;75048.59;;;-141.45;50.06
31403;BME280;18039;52.188;21.024;2023-06-24T08:59:34;75036.44;;;-141.45;50.07
31403;BME280;18039;52.188;21.024;2023-06-24T09:02:02;75032.38;;;-141.45;48.94
31403;BME280;18039;52.188;21.024;2023-06-24T09:04:29;75040.47;;;-141.45;48.58
31403;BME280;18039;52.188;21.024;2023-06-24T09:06:58;75046.56;;;-141.45;47.88
31403;BME280;18039;52.188;21.024;2023-06-24T09:09:25;75044.53;;;-141.45;47.98
31403;BME280;18039;52.188;21.024;2023-06-24T09:11:56;75048.59;;;-141.45;47.95
31403;BME280;18039;52.188;21.024;2023-06-24T09:14:25;75048.59;;;-141.45;48.62
31403;BME280;18039;52.188;21.024;2023-06-24T09:17:00;75032.38;;;-141.45;47.78
31403;BME280;18039;52.188;21.024;2023-06-24T09:19:28;75036.44;;;-141.45;47.76
31403;BME280;18039;52.188;21.024;2023-06-24T09:22:02;75024.28;;;-141.45;47.81
31403;BME280;18039;52.188;21.024;2023-06-24T09:24:30;75024.28;;;-141.45;47.44
31403;BME280;18039;52.188;21.024;2023-06-24T09:26:58;75020.22;;;-141.45;47.95
31403;BME280;18039;52.188;21.024;2023-06-24T09:29:27;75036.44;;;-141.45;47.86
31403;BME280;18039;52.188;21.024;2023-06-24T09:31:56;75042.50;;;-141.45;48.42
31403;BME280;18039;52.188;21.024;2023-06-24T09:34:26;75056.69;;;-141.45;48.83
31403;BME280;18039;52.188;21.024;2023-06-24T09:36:56;75030.34;;;-141.45;49.64
31403;BME280;18039;52.188;21.024;2023-06-24T09:39:25;75020.22;;;-141.45;46.95
31403;BME280;18039;52.188;21.024;2023-06-24T09:41:57;75022.25;;;-141.45;47.58
31403;BME280;18039;52.188;21.024;2023-06-24T09:44:26;75018.19;;;-141.45;48.68
31403;BME280;18039;52.188;21.024;2023-06-24T09:46:55;75024.28;;;-141.45;48.18
31403;BME280;18039;52.188;21.024;2023-06-24T09:49:23;75004.00;;;-141.45;49.01
31403;BME280;18039;52.188;21.024;2023-06-24T09:51:56;74983.75;;;-141.45;47.82
31403;BME280;18039;52.188;21.024;2023-06-24T09:54:26;74985.78;;;-141.45;47.68
31403;BME280;18039;52.188;21.024;2023-06-24T09:57:01;75004.00;;;-141.45;48.24
31403;BME280;18039;52.188;21.024;2023-06-24T09:59:30;74999.97;;;-141.45;48.31
31403;BME280;18039;52.188;21.024;2023-06-24T10:01:58;74991.84;;;-141.45;47.86
31403;BME280;18039;52.188;21.024;2023-06-24T10:04:27;74983.75;;;-141.45;47.72
31403;BME280;18039;52.188;21.024;2023-06-24T10:06:55;74971.59;;;-141.45;48.13
31403;BME280;18039;52.188;21.024;2023-06-24T10:09:22;74971.59;;;-141.45;48.01
31403;BME280;18039;52.188;21.024;2023-06-24T10:11:50;74971.59;;;-141.45;48.12
31403;BME280;18039;52.188;21.024;2023-06-24T10:14:17;74979.69;;;-141.45;48.86
31403;BME280;18039;52.188;21.024;2023-06-24T10:16:45;74983.75;;;-141.45;48.32
31403;BME280;18039;52.188;21.024;2023-06-24T10:19:19;74987.81;;;-141.45;49.09
31403;BME280;18039;52.188;21.024;2023-06-24T10:22:13;74979.69;;;-141.45;47.98
31403;BME280;18039;52.188;21.024;2023-06-24T10:24:41;74991.84;;;-141.45;48.29
31403;BME280;18039;52.188;21.024;2023-06-24T10:27:18;75004.00;;;-141.45;46.70
31403;BME280;18039;52.188;21.024;2023-06-24T10:29:46;75008.06;;;-141.45;48.23
31403;BME280;18039;52.188;21.024;2023-06-24T10:32:23;75012.13;;;-141.45;47.89
31403;BME280;18039;52.188;21.024;2023-06-24T10:34:59;74995.91;;;-141.45;48.04
31403;BME280;18039;52.188;21.024;2023-06-24T10:37:32;74987.81;;;-141.45;47.24
31403;BME280;18039;52.188;21.024;2023-06-24T10:40:00;74979.69;;;-141.45;47.38
31403;BME280;18039;52.188;21.024;2023-06-24T10:42:43;74971.59;;;-141.45;47.98
31403;BME280;18039;52.188;21.024;2023-06-24T10:45:15;74963.50;;;-141.45;47.54
31403;BME280;18039;52.188;21.024;2023-06-24T10:47:50;74949.31;;;-141.45;47.43
31403;BME280;18039;52.188;21.024;2023-06-24T10:50:24;74955.38;;;-141.45;47.75
31403;BME280;18039;52.188;21.024;2023-06-24T10:52:53;74963.50;;;-141.45;48.15
31403;BME280;18039;52.188;21.024;2023-06-24T10:55:27;74951.34;;;-141.45;49.08
31403;BME280;18039;52.188;21.024;2023-06-24T10:58:07;74947.28;;;-141.45;48.61
31403;BME280;18039;52.188;21.024;2023-06-24T11:00:39;74955.38;;;-141.45;48.87
31403;BME280;18039;52.188;21.024;2023-06-24T11:03:13;74959.44;;;-141.45;49.13
31403;BME280;18039;52.188;21.024;2023-06-24T11:05:44;74979.69;;;-141.45;49.90
31403;BME280;18039;52.188;21.024;2023-06-24T11:08:13;74983.75;;;-141.45;49.56
31403;BME280;18039;52.188;21.024;2023-06-24T11:10:47;74991.84;;;-141.45;50.43
31403;BME280;18039;52.188;21.024;2023-06-24T11:13:15;75008.06;;;-141.45;49.04
31403;BME280;18039;52.188;21.024;2023-06-24T11:15:42;75036.44;;;-141.45;49.56
31403;BME280;18039;52.188;21.024;2023-06-24T11:18:10;75054.66;;;-141.45;49.85
31403;BME280;18039;52.188;21.024;2023-06-24T11:20:38;75048.59;;;-141.45;49.18
31403;BME280;18039;52.188;21.024;2023-06-24T11:23:07;75068.84;;;-141.45;50.00
31403;BME280;18039;52.188;21.024;2023-06-24T11:25:42;75081.00;;;-141.45;51.11
31403;BME280;18039;52.188;21.024;2023-06-24T11:28:15;75087.09;;;-141.45;51.59
31403;BME280;18039;52.188;21.024;2023-06-24T11:30:42;75093.16;;;-141.45;52.19
31403;BME280;18039;52.188;21.024;2023-06-24T11:33:10;75093.16;;;-141.45;51.93
31403;BME280;18039;52.188;21.024;2023-06-24T11:35:37;75101.28;;;-141.45;51.36
31403;BME280;18039;52.188;21.024;2023-06-24T11:38:05;75121.53;;;-141.45;51.97
31403;BME280;18039;52.188;21.024;2023-06-24T11:40:33;75133.69;;;-141.45;51.99
31403;BME280;18039;52.188;21.024;2023-06-24T11:43:01;75137.75;;;-141.45;52.61
31403;BME280;18039;52.188;21.024;2023-06-24T11:45:31;75133.69;;;-141.45;52.24
31403;BME280;18039;52.188;21.024;2023-06-24T11:48:02;75145.84;;;-141.45;53.00
31403;BME280;18039;52.188;21.024;2023-06-24T11:50:32;75145.84;;;-141.45;53.52
31403;BME280;18039;52.188;21.024;2023-06-24T11:53:01;75166.09;;;-141.45;54.45
31403;BME280;18039;52.188;21.024;2023-06-24T11:55:31;75166.09;;;-141.45;54.56
31403;BME280;18039;52.188;21.024;2023-06-24T11:58:02;75170.16;;;-141.45;54.71
31403;BME280;18039;52.188;21.024;2023-06-24T12:00:38;75164.09;;;-141.45;54.82
31403;BME280;18039;52.188;21.024;2023-06-24T12:03:07;75184.34;;;-141.45;55.30
31403;BME280;18039;52.188;21.024;2023-06-24T12:05:39;75186.38;;;-141.45;55.66
31403;BME280;18039;52.188;21.024;2023-06-24T12:08:14;75186.38;;;-141.45;55.81
31403;BME280;18039;52.188;21.024;2023-06-24T12:10:45;75182.31;;;-141.45;55.38
31403;BME280;18039;52.188;21.024;2023-06-24T12:13:12;75186.38;;;-141.45;55.57
31403;BME280;18039;52.188;21.024;2023-06-24T12:15:40;75186.38;;;-141.45;55.74
31403;BME280;18039;52.188;21.024;2023-06-24T12:18:07;75182.31;;;-141.45;55.58
31403;BME280;18039;52.188;21.024;2023-06-24T12:20:35;75198.53;;;-141.45;55.95
31403;BME280;18039;52.188;21.024;2023-06-24T12:23:06;75202.59;;;-141.45;55.76
31403;BME280;18039;52.188;21.024;2023-06-24T12:25:33;75186.38;;;-141.45;54.62
31403;BME280;18039;52.188;21.024;2023-06-24T12:28:00;75204.63;;;-141.45;55.45
31403;BME280;18039;52.188;21.024;2023-06-24T12:30:28;75198.53;;;-141.45;55.79
31403;BME280;18039;52.188;21.024;2023-06-24T12:32:55;75202.59;;;-141.45;56.56
31403;BME280;18039;52.188;21.024;2023-06-24T12:35:23;75198.53;;;-141.45;56.20
31403;BME280;18039;52.188;21.024;2023-06-24T12:37:54;75196.50;;;-141.45;55.34
31403;BME280;18039;52.188;21.024;2023-06-24T12:40:22;75198.53;;;-141.45;55.82
31403;BME280;18039;52.188;21.024;2023-06-24T12:42:49;75202.59;;;-141.45;55.65
31403;BME280;18039;52.188;21.024;2023-06-24T12:45:16;75214.75;;;-141.45;56.02
31403;BME280;18039;52.188;21.024;2023-06-24T12:47:44;75204.63;;;-141.45;55.59
31403;BME280;18039;52.188;21.024;2023-06-24T12:50:11;75226.91;;;-141.45;56.67
31403;BME280;18039;52.188;21.024;2023-06-24T12:52:39;75243.09;;;-141.45;56.86